Tuckahoe, NY (10707)

12:51 PM EDT on August 29, 2015 (GMT -0400)
APRSWXNET | | Change Station
CLOSE
Current Station
Personal Weather Station
Location: New Rochelle, NY
Elevation: 147 ft
Nearby Weather Stations

Elev 147 ft 40.97 °N, 73.78 °W | Updated 33 minutes ago

Partly Cloudy
Partly Cloudy
80 °F
Feels Like 80 °F
N
3
Wind Variable Wind from SW
Gusts 10.0 mph

Today
High -- | Low -- °F
--% Chance of Precip.
Yesterday
High -- | Low -- °F
Precip. -- in
6:18 AM 7:32 PM
Full, 100% visible
Pressure 30.20 in
Visibility 10.0 miles
Clouds Scattered Clouds 4900 ft
Heat Index 80 °F
Dew Point 56 °F
Humidity 44%
Rainfall in
Snow Depth Not available.
UV 7 out of 12
Pollen 10.00 out of 12
Air Quality Not available.
Flu Activity Not available.
METAR KHPN 291556Z VRB06KT 10SM SCT049 26/12 A3021 RMK AO2 SLP225 T02610122
Pressure 30.20 in
Visibility 10.0 miles
Clouds Scattered Clouds 4900 ft
Heat Index 80 °F
Dew Point 56 °F
Humidity 44%
Rainfall in
Snow Depth Not available.
UV 7 out of 12
Pollen 10.00 out of 12
Air Quality Not available.
Flu Activity Not available.
METAR KHPN 291556Z VRB06KT 10SM SCT049 26/12 A3021 RMK AO2 SLP225 T02610122

10-Day Weather Forecast

×

Almanac

Astronomy

Aug. 29, 2015 Rise Set
Actual Time
Civil Twilight
Nautical Twilight
Astronomical Twilight
Moon
Length of Visible Light
Length of Day
Tomorrow will be .
, % of the Moon is Illuminated

Today's Extremes

State Highs State Lows

Community

WunderPhotos

Upload Photos

1,850,722 photos uploaded!

WunderBlogs® & News

Nearby

Air Quality

  Air Quality AQ Index Pollutant
Not available.

Snow Depth

Station Depth Elevation

Earthquake Activity

City Distance Mag. Time & Date
Minimum magnitude displayed is 2.5.

Coastal Water Temperatures

Place Temperature

Stations

Nearby Weather Stations

Station Location Temp. Windchill Dew Point Humidity Wind Precip. Elev Updated Type